Time;durP1;ratioP1;P1;durP2;ratioP2;P2;SDS_P1;SDS_P2;PMS_P1;PMS_P2;Temp;Humidity;BMP_temperature;BMP_pressure;BME280_temperature;BME280_humidity;BME280_pressure;Samples;Min_cycle;Max_cycle;Signal;HPM_P1;HPM_P2
2022/11/04 00:02:05;;;;;;;90.53;57.00;;;8.10;99.90;;;;;;4958522;28;20039;-77
2022/11/04 00:04:32;;;;;;;97.85;60.40;;;8.10;99.90;;;;;;4961260;28;20051;-77
2022/11/04 00:08:22;;;;;;;92.53;55.92;;;8.10;99.90;;;;;;4961462;28;20053;-77
2022/11/04 00:09:48;;;;;;;97.85;58.83;;;8.10;99.90;;;;;;4961204;28;20045;-75
2022/11/04 00:12:26;;;;;;;100.68;59.67;;;8.10;99.90;;;;;;4959372;28;20133;-75
2022/11/04 00:17:17;;;;;;;87.50;55.35;;;8.00;99.90;;;;;;4961258;28;20034;-76
2022/11/04 00:17:40;;;;;;;98.18;58.50;;;8.00;99.90;;;;;;4960929;28;20065;-78
2022/11/04 00:33:52;;;;;;;82.40;53.65;;;7.80;99.90;;;;;;4959167;28;20447;-77
2022/11/04 00:36:19;;;;;;;89.32;56.20;;;7.80;99.90;;;;;;4960040;28;20130;-77
2022/11/04 00:38:48;;;;;;;84.82;52.42;;;7.80;99.90;;;;;;4958301;28;20054;-76
2022/11/04 00:41:27;;;;;;;89.07;55.08;;;7.80;99.90;;;;;;4960557;28;20050;-76
2022/11/04 00:43:55;;;;;;;102.32;60.92;;;7.80;99.90;;;;;;4960433;28;20066;-76
2022/11/04 00:46:22;;;;;;;98.65;58.38;;;7.80;99.90;;;;;;4960517;28;20050;-76
2022/11/04 00:48:49;;;;;;;91.40;57.28;;;7.70;99.90;;;;;;4960357;28;20047;-75
2022/11/04 00:51:17;;;;;;;103.70;60.88;;;7.70;99.90;;;;;;4960141;28;20041;-76
2022/11/04 00:53:44;;;;;;;94.95;60.47;;;7.60;99.90;;;;;;4941046;28;20048;-76
2022/11/04 00:56:12;;;;;;;96.95;57.45;;;7.60;99.90;;;;;;4942791;28;20054;-76
2022/11/04 00:58:40;;;;;;;96.63;57.63;;;7.60;99.90;;;;;;4960305;28;20507;-76
2022/11/04 01:01:09;;;;;;;86.38;52.40;;;7.50;99.90;;;;;;4960320;28;20047;-76
2022/11/04 01:03:36;;;;;;;87.25;52.67;;;7.50;99.90;;;;;;4960516;28;20063;-77
2022/11/04 01:06:04;;;;;;;88.00;54.28;;;7.60;99.90;;;;;;4960344;28;20046;-77
2022/11/04 01:08:31;;;;;;;88.40;52.00;;;7.60;99.90;;;;;;4943337;28;20043;-76
2022/11/04 01:11:01;;;;;;;101.03;56.10;;;7.60;99.90;;;;;;4958692;28;20039;-76
2022/11/04 01:13:30;;;;;;;90.55;55.05;;;7.60;99.90;;;;;;4963161;28;20043;-77
2022/11/04 01:15:58;;;;;;;99.25;59.17;;;7.50;99.90;;;;;;4945790;28;20047;-77
2022/11/04 01:18:25;;;;;;;105.70;60.03;;;7.50;99.90;;;;;;4946369;28;20123;-77
2022/11/04 01:20:53;;;;;;;102.72;61.08;;;7.40;99.90;;;;;;4945966;28;20086;-76
2022/11/04 01:23:20;;;;;;;93.50;57.25;;;7.40;99.90;;;;;;4963525;28;20202;-76
2022/11/04 01:25:50;;;;;;;103.32;59.90;;;7.40;99.90;;;;;;4963097;28;20063;-76
2022/11/04 01:28:17;;;;;;;100.93;60.47;;;7.40;99.90;;;;;;4961373;28;20094;-77
2022/11/04 01:30:46;;;;;;;103.32;60.78;;;7.30;99.90;;;;;;4962863;28;20042;-76
2022/11/04 01:33:13;;;;;;;98.22;57.63;;;7.30;99.90;;;;;;4963168;28;20046;-76
2022/11/04 01:35:40;;;;;;;90.72;54.70;;;7.30;99.90;;;;;;4945549;28;20127;-77
2022/11/04 01:38:07;;;;;;;94.18;55.45;;;7.40;99.90;;;;;;4962886;28;20506;-77
2022/11/04 01:40:36;;;;;;;88.57;55.22;;;7.50;99.90;;;;;;4962951;28;20487;-76
2022/11/04 01:43:04;;;;;;;96.72;54.72;;;7.50;99.90;;;;;;4962848;28;20068;-76
2022/11/04 01:45:31;;;;;;;89.38;53.30;;;7.50;99.90;;;;;;4964044;28;20045;-76
2022/11/04 01:48:04;;;;;;;91.22;53.88;;;7.50;99.90;;;;;;4963452;28;20047;-77
2022/11/04 01:50:34;;;;;;;81.13;49.78;;;7.50;99.90;;;;;;4963145;28;20065;-76
2022/11/04 01:53:06;;;;;;;82.85;48.55;;;7.50;99.90;;;;;;4963082;28;20047;-77
2022/11/04 01:55:37;;;;;;;74.03;47.38;;;7.50;99.90;;;;;;4962794;28;20129;-76
2022/11/04 01:58:08;;;;;;;94.75;54.97;;;7.40;99.90;;;;;;4962123;28;20050;-77
2022/11/04 02:00:37;;;;;;;79.82;48.78;;;7.40;99.90;;;;;;4962324;28;20392;-76
2022/11/04 02:03:11;;;;;;;69.10;45.88;;;7.40;99.90;;;;;;4944599;28;20058;-77
2022/11/04 02:05:39;;;;;;;77.03;45.55;;;7.30;99.90;;;;;;4962570;28;20039;-77
2022/11/04 02:08:08;;;;;;;74.40;45.13;;;7.30;99.90;;;;;;4963034;28;20125;-77
2022/11/04 02:10:36;;;;;;;67.85;43.17;;;7.30;99.90;;;;;;4943544;28;20047;-77
2022/11/04 02:13:03;;;;;;;69.40;44.25;;;7.30;99.90;;;;;;4963145;28;20053;-77
2022/11/04 02:15:39;;;;;;;63.45;42.20;;;7.30;99.90;;;;;;4962605;28;20058;-77
2022/11/04 02:18:21;;;;;;;;;;;7.30;99.90;;;;;;4962795;28;20041;-77
2022/11/04 02:21:11;;;;;;;70.53;45.97;;;7.30;99.90;;;;;;4961885;28;20723;-75
2022/11/04 02:24:15;;;;;;;68.57;46.67;;;7.30;99.90;;;;;;4944386;28;20099;-77
2022/11/04 02:27:07;;;;;;;69.55;46.40;;;7.30;99.90;;;;;;4935195;28;20259;-78
2022/11/04 02:29:46;;;;;;;74.50;48.35;;;7.20;99.90;;;;;;4960213;28;20043;-77
2022/11/04 02:32:24;;;;;;;71.13;46.97;;;7.10;99.90;;;;;;4943943;28;20404;-76
2022/11/04 02:35:02;;;;;;;66.40;42.85;;;7.10;99.90;;;;;;4961837;28;20041;-76
2022/11/04 02:37:38;;;;;;;69.30;42.15;;;7.00;99.90;;;;;;4961929;28;20039;-76
2022/11/04 02:40:13;;;;;;;64.90;40.25;;;7.10;99.90;;;;;;4960399;28;20047;-76
2022/11/04 02:42:49;;;;;;;69.18;42.20;;;7.10;99.90;;;;;;4961833;28;20454;-78
2022/11/04 02:45:22;;;;;;;67.60;40.15;;;7.20;99.90;;;;;;4944594;28;20043;-75
2022/11/04 02:47:55;;;;;;;63.08;40.03;;;7.20;99.90;;;;;;4960401;28;20123;-77
2022/11/04 02:50:28;;;;;;;63.20;39.85;;;7.20;99.90;;;;;;4960790;28;20047;-77
2022/11/04 02:53:00;;;;;;;68.03;42.47;;;7.20;99.90;;;;;;4961816;28;20051;-77
2022/11/04 02:55:34;;;;;;;65.80;41.42;;;7.30;99.90;;;;;;4961703;28;20660;-77
2022/11/04 02:58:05;;;;;;;69.68;41.53;;;7.20;99.90;;;;;;4959903;28;20050;-77
2022/11/04 03:00:36;;;;;;;61.22;39.80;;;7.10;99.90;;;;;;4959854;28;20043;-77
2022/11/04 03:03:09;;;;;;;58.67;37.55;;;7.20;99.90;;;;;;4960964;28;20039;-77
2022/11/04 03:05:39;;;;;;;70.88;43.38;;;7.30;99.90;;;;;;4941216;28;20046;-77
2022/11/04 03:08:13;;;;;;;62.28;37.15;;;7.30;99.90;;;;;;4961334;28;20474;-77
2022/11/04 03:10:44;;;;;;;56.53;36.95;;;7.30;99.90;;;;;;4960188;28;20046;-77
2022/11/04 03:13:14;;;;;;;63.10;36.97;;;7.30;99.90;;;;;;4961332;28;20074;-76
2022/11/04 03:15:51;;;;;;;64.18;37.33;;;7.20;99.90;;;;;;4940961;28;20468;-77
2022/11/04 03:18:24;;;;;;;62.97;37.42;;;7.10;99.90;;;;;;4960541;28;20039;-76
2022/11/04 03:20:53;;;;;;;61.75;38.15;;;7.10;99.90;;;;;;4960501;28;20040;-76
2022/11/04 03:23:20;;;;;;;62.83;38.22;;;7.10;99.90;;;;;;4959185;28;20118;-76
2022/11/04 03:25:52;;;;;;;71.00;42.05;;;7.20;99.90;;;;;;4939680;28;20098;-77
2022/11/04 03:28:30;;;;;;;74.43;45.72;;;7.30;99.90;;;;;;4960079;28;20154;-77
2022/11/04 03:31:03;;;;;;;67.55;43.67;;;7.20;99.90;;;;;;4960707;28;20043;-77
2022/11/04 03:33:38;;;;;;;66.82;41.65;;;7.30;99.90;;;;;;4960017;28;20495;-76
2022/11/04 03:36:07;;;;;;;63.42;41.72;;;7.30;99.90;;;;;;4960033;28;20048;-77
2022/11/04 03:38:35;;;;;;;69.32;40.17;;;7.30;99.90;;;;;;4960810;28;20038;-77
2022/11/04 03:41:06;;;;;;;62.38;40.05;;;7.30;99.90;;;;;;4942115;28;20466;-77
2022/11/04 03:43:36;;;;;;;61.40;39.90;;;7.40;99.90;;;;;;4960316;28;20736;-76
2022/11/04 03:46:04;;;;;;;58.78;38.40;;;7.40;99.90;;;;;;4958435;28;20047;-76
2022/11/04 03:48:32;;;;;;;63.72;39.15;;;7.40;99.90;;;;;;4958105;28;20039;-76
2022/11/04 03:51:00;;;;;;;57.92;37.58;;;7.50;99.90;;;;;;4959098;28;20046;-77
2022/11/04 03:53:29;;;;;;;58.03;36.75;;;7.50;99.90;;;;;;4959429;28;20135;-76
2022/11/04 03:56:18;;;;;;;58.90;36.28;;;7.50;99.90;;;;;;4959606;28;20094;-76
2022/11/04 03:58:54;;;;;;;60.90;37.20;;;7.50;99.90;;;;;;4960108;28;20051;-76
2022/11/04 04:01:30;;;;;;;50.97;33.63;;;7.50;99.90;;;;;;4959759;28;20038;-77
2022/11/04 04:04:01;;;;;;;60.25;37.40;;;7.50;99.90;;;;;;4959638;28;20102;-77
2022/11/04 04:06:34;;;;;;;55.95;36.80;;;7.40;99.90;;;;;;4943788;28;20693;-77
2022/11/04 04:09:09;;;;;;;60.60;37.35;;;7.50;99.90;;;;;;4940854;28;20095;-77
2022/11/04 04:11:42;;;;;;;61.70;37.10;;;7.50;99.90;;;;;;4958491;28;20047;-77
2022/11/04 04:14:37;;;;;;;56.42;36.50;;;7.50;99.90;;;;;;4959885;28;20566;-77
2022/11/04 04:17:09;;;;;;;56.22;36.20;;;7.60;99.90;;;;;;4960043;28;20090;-77
2022/11/04 04:19:37;;;;;;;57.05;36.50;;;7.60;99.90;;;;;;4940926;28;20075;-77
2022/11/04 04:22:10;;;;;;;62.03;37.88;;;7.60;99.90;;;;;;4925707;28;20578;-77
2022/11/04 04:27:32;;;;;;;60.78;37.92;;;7.60;99.90;;;;;;4959607;28;20490;-77
2022/11/04 04:30:02;;;;;;;57.53;36.92;;;7.50;99.90;;;;;;4960171;28;20039;-77
2022/11/04 04:32:34;;;;;;;59.13;37.55;;;7.50;99.90;;;;;;4959730;28;20058;-77
2022/11/04 04:37:47;;;;;;;56.72;37.20;;;7.60;99.90;;;;;;4959849;28;20047;-77
2022/11/04 04:45:52;;;;;;;56.83;36.88;;;7.60;99.90;;;;;;4959269;28;20074;-78
2022/11/04 04:48:21;;;;;;;54.45;35.33;;;7.70;99.90;;;;;;4945912;28;20050;-77
2022/11/04 04:50:51;;;;;;;54.50;36.70;;;7.70;99.90;;;;;;4962800;28;20039;-77
2022/11/04 04:53:19;;;;;;;54.78;36.35;;;7.70;99.90;;;;;;4961956;28;20039;-76
2022/11/04 04:55:46;;;;;;;60.88;35.60;;;7.70;99.90;;;;;;4944180;28;20042;-77
2022/11/04 04:58:13;;;;;;;53.60;34.63;;;7.80;99.90;;;;;;4964042;28;20042;-78
2022/11/04 05:00:40;;;;;;;52.65;35.00;;;7.70;99.90;;;;;;4963567;28;20045;-77
2022/11/04 05:03:08;;;;;;;49.22;33.80;;;7.80;99.90;;;;;;4963409;28;20138;-78
2022/11/04 05:05:36;;;;;;;59.00;37.20;;;7.80;99.90;;;;;;4929343;28;20044;-77
2022/11/04 05:08:08;;;;;;;58.55;34.20;;;7.80;99.90;;;;;;4962147;28;20446;-78
2022/11/04 05:10:35;;;;;;;61.28;35.22;;;7.90;99.90;;;;;;4944074;28;20447;-78
2022/11/04 05:15:47;;;;;;;53.63;34.22;;;7.90;99.90;;;;;;4961500;28;20169;-76
2022/11/04 05:18:14;;;;;;;52.97;35.28;;;7.90;99.90;;;;;;4963544;28;20038;-77
2022/11/04 05:20:43;;;;;;;56.53;35.05;;;7.90;99.90;;;;;;4958035;28;20042;-79
2022/11/04 05:23:13;;;;;;;51.97;33.65;;;8.00;99.90;;;;;;4959136;28;20043;-75
2022/11/04 05:25:42;;;;;;;63.53;36.90;;;8.00;99.90;;;;;;4945227;28;20044;-78
2022/11/04 05:28:10;;;;;;;55.42;34.90;;;8.00;99.90;;;;;;4962688;28;20483;-76
2022/11/04 05:30:37;;;;;;;57.42;34.45;;;8.00;99.90;;;;;;4962670;28;20035;-76
2022/11/04 05:33:05;;;;;;;61.10;37.05;;;8.00;99.90;;;;;;4961942;28;20069;-75
2022/11/04 05:35:32;;;;;;;58.72;35.05;;;8.10;99.90;;;;;;4958482;28;20089;-76
2022/11/04 05:38:01;;;;;;;55.80;35.25;;;8.00;99.90;;;;;;4946253;28;20050;-77
2022/11/04 05:40:28;;;;;;;54.85;34.47;;;8.10;99.90;;;;;;4962627;28;20050;-76
2022/11/04 05:42:58;;;;;;;54.92;34.63;;;8.20;99.90;;;;;;4960283;28;20043;-78
2022/11/04 05:45:26;;;;;;;52.72;33.90;;;8.30;99.90;;;;;;4945517;28;20053;-77
2022/11/04 05:47:58;;;;;;;53.25;34.35;;;8.40;99.90;;;;;;4960389;28;20043;-77
2022/11/04 05:50:26;;;;;;;55.75;34.53;;;8.50;99.90;;;;;;4961639;28;20042;-77
2022/11/04 05:52:53;;;;;;;53.35;35.83;;;8.50;99.90;;;;;;4961080;28;20043;-77
2022/11/04 05:55:22;;;;;;;57.53;37.15;;;8.60;99.90;;;;;;4961733;28;20050;-78
2022/11/04 05:57:49;;;;;;;57.67;34.65;;;8.70;99.90;;;;;;4961755;28;20046;-77
2022/11/04 06:00:17;;;;;;;39.72;25.13;;;8.80;99.90;;;;;;4961554;28;20102;-77
2022/11/04 06:02:44;;;;;;;47.08;28.40;;;8.90;99.90;;;;;;4962387;28;20042;-76
2022/11/04 06:05:12;;;;;;;51.55;32.47;;;9.00;99.90;;;;;;4963107;28;20043;-76
2022/11/04 06:07:39;;;;;;;62.03;37.92;;;9.20;99.90;;;;;;4945421;28;20047;-76
2022/11/04 06:10:07;;;;;;;50.20;34.30;;;9.20;99.90;;;;;;4962679;28;20050;-77
2022/11/04 06:12:36;;;;;;;59.70;35.78;;;9.30;99.90;;;;;;4962277;28;20043;-76
2022/11/04 06:15:04;;;;;;;54.45;34.78;;;9.30;99.90;;;;;;4961955;28;20082;-76
2022/11/04 06:17:31;;;;;;;51.80;33.45;;;9.30;99.90;;;;;;4962831;28;20067;-76
2022/11/04 06:19:58;;;;;;;53.63;32.65;;;9.40;99.90;;;;;;4960607;28;20504;-76
2022/11/04 06:22:27;;;;;;;51.15;32.78;;;9.40;99.90;;;;;;4962726;28;20081;-76
2022/11/04 06:24:54;;;;;;;51.80;33.47;;;9.50;99.90;;;;;;4961805;28;20156;-76
2022/11/04 06:27:22;;;;;;;61.35;38.30;;;9.60;99.90;;;;;;4962685;28;20043;-75
2022/11/04 06:29:51;;;;;;;69.60;43.03;;;9.70;99.90;;;;;;4942295;28;20392;-76
2022/11/04 06:32:19;;;;;;;91.40;45.78;;;9.80;99.90;;;;;;4961443;28;20035;-76
2022/11/04 06:34:46;;;;;;;74.38;42.20;;;9.80;99.90;;;;;;4960717;28;20479;-75
2022/11/04 06:37:15;;;;;;;60.17;36.83;;;10.00;99.90;;;;;;4960957;28;20055;-76
2022/11/04 06:39:42;;;;;;;55.25;34.40;;;10.10;99.90;;;;;;4961471;28;20073;-76
2022/11/04 06:42:09;;;;;;;49.53;31.45;;;10.20;99.90;;;;;;4960835;28;20043;-75
2022/11/04 06:44:37;;;;;;;53.35;35.25;;;10.20;99.90;;;;;;4961200;28;20083;-75
2022/11/04 06:47:05;;;;;;;58.38;34.30;;;10.30;99.90;;;;;;4960038;28;20140;-76
2022/11/04 06:49:33;;;;;;;58.88;35.13;;;10.30;99.90;;;;;;4961577;28;20040;-76
2022/11/04 06:52:01;;;;;;;50.55;34.35;;;10.30;99.90;;;;;;4961286;28;20061;-77
2022/11/04 06:54:28;;;;;;;57.80;36.20;;;10.30;99.90;;;;;;4938894;28;20047;-76
2022/11/04 06:56:56;;;;;;;76.55;42.67;;;10.30;99.90;;;;;;4960434;28;20047;-76
2022/11/04 06:59:23;;;;;;;71.13;43.22;;;10.30;99.90;;;;;;4955187;28;20031;-76
2022/11/04 07:01:51;;;;;;;61.60;38.22;;;10.40;99.90;;;;;;4941895;28;20058;-76
2022/11/04 07:04:21;;;;;;;75.32;39.03;;;10.40;99.90;;;;;;4959620;28;20063;-77
2022/11/04 07:06:49;;;;;;;134.07;49.75;;;10.40;99.90;;;;;;4961042;28;20055;-77
2022/11/04 07:09:16;;;;;;;107.30;50.83;;;10.50;99.90;;;;;;4959701;28;20090;-76
2022/11/04 07:11:45;;;;;;;77.75;44.53;;;10.50;99.90;;;;;;4960765;28;20050;-77
2022/11/04 07:14:13;;;;;;;57.15;36.03;;;10.50;99.90;;;;;;4961536;28;20047;-77
2022/11/04 07:16:40;;;;;;;69.82;40.53;;;10.50;99.90;;;;;;4940939;28;20042;-77
2022/11/04 07:19:08;;;;;;;67.43;39.70;;;10.60;99.90;;;;;;4957702;28;20048;-76
2022/11/04 07:21:37;;;;;;;96.40;46.28;;;10.60;99.90;;;;;;4959681;28;20042;-77
2022/11/04 07:24:04;;;;;;;81.70;41.20;;;10.70;99.90;;;;;;4960738;28;20562;-77
2022/11/04 07:26:31;;;;;;;82.00;43.58;;;10.80;99.90;;;;;;4961532;28;20047;-77
2022/11/04 07:28:59;;;;;;;79.45;43.00;;;10.90;99.90;;;;;;4959937;28;20191;-77
2022/11/04 07:31:27;;;;;;;72.90;40.22;;;11.00;99.90;;;;;;4961326;28;20102;-77
2022/11/04 07:33:55;;;;;;;92.63;46.05;;;11.10;99.90;;;;;;4961421;28;20103;-77
2022/11/04 07:36:22;;;;;;;79.53;46.63;;;11.20;99.90;;;;;;4960895;28;20043;-77
2022/11/04 07:38:51;;;;;;;69.47;44.08;;;11.30;99.90;;;;;;4961133;28;20092;-77
2022/11/04 07:41:18;;;;;;;74.65;51.47;;;11.30;99.90;;;;;;4960136;28;20118;-76
2022/11/04 07:43:49;;;;;;;75.22;49.35;;;11.40;99.90;;;;;;4960382;28;20046;-76
2022/11/04 07:46:17;;;;;;;78.13;44.10;;;11.50;99.90;;;;;;4941841;28;20047;-76
2022/11/04 07:48:45;;;;;;;71.72;40.67;;;11.60;99.90;;;;;;4960106;28;20050;-76
2022/11/04 07:51:15;;;;;;;61.22;37.25;;;11.70;99.90;;;;;;4960996;28;20340;-76
2022/11/04 07:53:43;;;;;;;62.10;39.10;;;12.00;99.90;;;;;;4960431;28;20084;-76
2022/11/04 07:56:13;;;;;;;65.90;40.80;;;12.20;99.90;;;;;;4960177;28;20039;-76
2022/11/04 07:58:41;;;;;;;65.40;41.15;;;12.30;99.90;;;;;;4958892;28;20055;-75
2022/11/04 08:01:11;;;;;;;65.07;42.17;;;12.40;99.90;;;;;;4960726;28;20118;-76
2022/11/04 08:03:39;;;;;;;66.82;42.30;;;12.60;99.90;;;;;;4960633;28;20050;-76
2022/11/04 08:06:09;;;;;;;76.80;38.92;;;12.80;99.90;;;;;;4960343;28;20050;-76
2022/11/04 08:08:36;;;;;;;64.75;37.05;;;13.00;99.90;;;;;;4940984;28;20098;-78
2022/11/04 08:11:05;;;;;;;66.93;40.53;;;13.10;99.90;;;;;;4961576;28;20047;-74
2022/11/04 08:13:36;;;;;;;62.50;39.92;;;13.20;99.90;;;;;;4960763;28;20094;-77
2022/11/04 08:16:05;;;;;;;69.32;42.22;;;13.30;99.90;;;;;;4966963;28;20051;-77
2022/11/04 08:18:33;;;;;;;71.88;44.72;;;13.50;99.90;;;;;;4962537;28;20046;-76
2022/11/04 08:21:02;;;;;;;71.85;40.45;;;13.60;99.90;;;;;;4958702;28;20043;-75
2022/11/04 08:23:31;;;;;;;73.97;41.58;;;13.80;99.90;;;;;;4959976;28;20057;-76
2022/11/04 08:25:58;;;;;;;80.20;42.90;;;13.90;99.90;;;;;;4941495;28;20102;-77
2022/11/04 08:28:28;;;;;;;88.30;44.65;;;14.00;99.90;;;;;;4942350;28;20051;-76
2022/11/04 08:31:00;;;;;;;72.45;42.00;;;14.10;99.90;;;;;;4959782;28;20043;-76
2022/11/04 08:33:28;;;;;;;71.50;42.72;;;14.20;99.90;;;;;;4960013;28;20046;-76
2022/11/04 08:36:03;;;;;;;78.93;42.80;;;14.20;99.90;;;;;;4960629;28;20363;-75
2022/11/04 08:38:31;;;;;;;67.78;42.58;;;14.30;99.90;;;;;;4960001;28;20410;-75
2022/11/04 08:40:58;;;;;;;71.68;41.33;;;14.40;99.90;;;;;;4959940;28;20451;-76
2022/11/04 08:43:26;;;;;;;86.00;44.60;;;14.60;99.90;;;;;;4959269;28;20079;-75
2022/11/04 08:45:54;;;;;;;111.95;47.15;;;14.60;99.90;;;;;;4959983;28;20038;-75
2022/11/04 08:48:23;;;;;;;116.70;51.60;;;14.70;99.90;;;;;;4960348;28;20102;-76
2022/11/04 08:50:50;;;;;;;82.43;46.40;;;14.80;99.90;;;;;;4959755;28;20562;-75
2022/11/04 08:53:18;;;;;;;75.85;49.20;;;14.80;99.90;;;;;;4941604;28;20062;-77
2022/11/04 08:55:45;;;;;;;77.22;47.08;;;14.90;99.90;;;;;;4960407;28;20387;-77
2022/11/04 08:58:13;;;;;;;68.03;45.10;;;15.00;99.90;;;;;;4943121;28;20038;-76
2022/11/04 09:00:41;;;;;;;68.97;45.58;;;15.10;99.90;;;;;;4941593;28;20059;-75
2022/11/04 09:03:08;;;;;;;67.07;43.72;;;15.10;99.90;;;;;;4959796;28;20044;-76
2022/11/04 09:05:43;;;;;;;77.43;46.80;;;15.20;99.90;;;;;;4959294;28;20038;-76
2022/11/04 09:08:11;;;;;;;77.80;49.72;;;15.40;99.90;;;;;;4959778;28;20071;-76
2022/11/04 09:10:42;;;;;;;78.00;51.10;;;15.30;99.90;;;;;;4940404;28;20098;-75
2022/11/04 09:13:10;;;;;;;73.18;43.40;;;15.50;99.90;;;;;;4960528;28;20047;-75
2022/11/04 09:15:38;;;;;;;53.00;36.60;;;15.60;99.90;;;;;;4941209;28;20430;-74
2022/11/04 09:18:05;;;;;;;72.38;41.13;;;15.70;99.90;;;;;;4959058;28;20527;-77
2022/11/04 09:20:33;;;;;;;63.60;38.70;;;15.70;99.90;;;;;;4959750;28;20176;-76
2022/11/04 09:23:01;;;;;;;60.08;40.05;;;15.80;99.90;;;;;;4956848;28;20429;-75
2022/11/04 09:25:29;;;;;;;73.97;47.50;;;15.80;99.90;;;;;;4959546;28;20055;-75
2022/11/04 09:27:56;;;;;;;76.28;48.72;;;15.90;99.90;;;;;;4958928;28;20043;-75
2022/11/04 09:30:23;;;;;;;92.63;64.00;;;16.20;99.90;;;;;;4959539;28;20039;-75
2022/11/04 09:32:50;;;;;;;94.20;61.58;;;16.50;99.90;;;;;;4960851;28;20055;-76
2022/11/04 09:35:18;;;;;;;106.95;65.05;;;16.70;99.90;;;;;;4962784;28;20062;-75
2022/11/04 09:37:46;;;;;;;97.72;66.55;;;16.90;99.90;;;;;;4945276;28;20113;-75
2022/11/04 09:40:17;;;;;;;99.97;66.75;;;17.10;99.90;;;;;;4962798;28;20061;-75
2022/11/04 09:42:59;;;;;;;109.45;67.63;;;16.90;99.90;;;;;;4963277;28;20039;-75
2022/11/04 09:45:29;;;;;;;90.82;61.00;;;16.90;99.90;;;;;;4963951;28;20043;-75
2022/11/04 09:48:00;;;;;;;89.75;59.63;;;17.00;99.90;;;;;;4963310;28;20555;-76
2022/11/04 09:50:32;;;;;;;85.93;59.22;;;17.20;99.90;;;;;;4962202;28;20070;-77
2022/11/04 09:53:06;;;;;;;90.85;59.65;;;17.20;99.90;;;;;;4962631;28;20113;-76
2022/11/04 09:55:40;;;;;;;84.38;55.78;;;17.30;99.90;;;;;;4963528;28;20123;-76
2022/11/04 09:58:11;;;;;;;68.95;52.75;;;17.40;99.90;;;;;;4962507;28;20043;-76
2022/11/04 10:00:41;;;;;;;85.63;56.42;;;17.40;99.90;;;;;;4962598;28;20047;-76
2022/11/04 10:03:20;;;;;;;77.45;52.70;;;17.60;99.90;;;;;;4962117;28;20047;-76
2022/11/04 10:06:03;;;;;;;80.28;55.35;;;17.60;99.90;;;;;;4963029;28;20047;-76
2022/11/04 10:08:54;;;;;;;77.07;53.50;;;17.60;99.90;;;;;;4944282;28;20501;-75
2022/11/04 10:11:29;;;;;;;64.38;43.80;;;17.90;99.90;;;;;;4962727;28;20043;-76
2022/11/04 10:14:19;;;;;;;74.72;49.63;;;18.00;99.90;;;;;;4945623;28;20082;-76
2022/11/04 10:17:00;;;;;;;68.55;44.83;;;18.30;99.90;;;;;;4940567;28;20084;-76
2022/11/04 10:19:41;;;;;;;74.55;45.45;;;18.60;99.90;;;;;;4963237;28;20039;-76
2022/11/04 10:22:17;;;;;;;56.08;34.28;;;18.70;99.90;;;;;;4961758;28;20464;-75
2022/11/04 10:24:53;;;;;;;61.50;37.40;;;18.80;99.90;;;;;;4958596;28;20070;-77
2022/11/04 10:27:26;;;;;;;43.17;30.88;;;19.00;99.90;;;;;;4960339;28;20106;-78
2022/11/04 10:29:59;;;;;;;53.00;33.13;;;19.20;99.90;;;;;;4956898;28;20490;-77
2022/11/04 10:32:32;;;;;;;37.80;24.85;;;19.40;99.90;;;;;;4960917;28;20039;-74
2022/11/04 10:35:03;;;;;;;46.08;26.35;;;19.50;99.90;;;;;;4962063;28;20074;-75
2022/11/04 10:37:31;;;;;;;32.58;19.38;;;19.70;99.30;;;;;;4960262;28;20057;-75
2022/11/04 10:40:15;;;;;;;29.65;16.77;;;19.80;97.60;;;;;;4961900;28;20090;-75
2022/11/04 10:42:44;;;;;;;28.42;18.42;;;19.90;95.20;;;;;;4961561;28;20091;-77
2022/11/04 10:45:12;;;;;;;20.05;11.85;;;19.90;93.30;;;;;;4942088;28;20653;-76
2022/11/04 10:47:48;;;;;;;25.60;13.57;;;20.00;92.30;;;;;;4961726;28;20099;-76
2022/11/04 10:50:24;;;;;;;30.55;19.42;;;20.00;92.70;;;;;;4960662;28;20047;-76
2022/11/04 10:52:54;;;;;;;25.60;13.30;;;20.10;92.60;;;;;;4962133;28;20498;-76
2022/11/04 10:55:33;;;;;;;18.73;11.00;;;20.10;92.10;;;;;;4961880;28;20047;-76
2022/11/04 10:58:02;;;;;;;24.60;11.80;;;20.00;91.20;;;;;;4961392;28;20042;-75
2022/11/04 11:00:34;;;;;;;23.98;12.75;;;20.00;91.20;;;;;;4943492;28;20514;-75
2022/11/04 11:03:21;;;;;;;17.23;7.97;;;20.00;91.80;;;;;;4942821;28;20058;-76
2022/11/04 11:05:49;;;;;;;20.95;8.05;;;20.00;90.30;;;;;;4961193;28;20051;-76
2022/11/04 11:08:29;;;;;;;14.27;7.35;;;19.90;89.00;;;;;;4940123;28;20043;-76
2022/11/04 11:10:56;;;;;;;17.15;8.15;;;19.90;89.00;;;;;;4959298;28;20047;-75
2022/11/04 11:13:34;;;;;;;16.83;8.45;;;19.80;88.90;;;;;;4959206;28;20074;-77
2022/11/04 11:16:11;;;;;;;19.20;8.98;;;19.80;88.80;;;;;;4961159;28;20051;-75
2022/11/04 11:18:40;;;;;;;23.58;11.80;;;19.90;88.00;;;;;;4960930;28;20043;-75
2022/11/04 11:21:14;;;;;;;26.27;11.20;;;19.90;88.00;;;;;;4961312;28;20491;-75
2022/11/04 11:23:46;;;;;;;27.92;12.38;;;20.00;88.50;;;;;;4959853;28;20038;-76
2022/11/04 11:26:16;;;;;;;22.65;12.35;;;19.90;89.20;;;;;;4961519;28;20047;-76
2022/11/04 11:28:51;;;;;;;29.73;13.00;;;19.80;88.70;;;;;;4960770;28;20047;-76
2022/11/04 11:31:25;;;;;;;29.98;15.05;;;19.70;88.90;;;;;;4959922;28;20491;-76
2022/11/04 11:33:56;;;;;;;27.38;15.07;;;19.70;90.20;;;;;;4960093;28;20046;-76
2022/11/04 11:36:26;;;;;;;30.27;15.77;;;19.70;90.40;;;;;;4961331;28;20047;-76
2022/11/04 11:39:04;;;;;;;28.83;16.15;;;19.70;92.00;;;;;;4962052;28;20661;-76
2022/11/04 11:41:47;;;;;;;31.60;17.60;;;19.60;93.20;;;;;;4961354;28;20039;-75
2022/11/04 11:44:27;;;;;;;27.27;15.10;;;19.50;94.20;;;;;;4958465;28;20117;-77
2022/11/04 11:46:57;;;;;;;29.38;15.95;;;19.40;94.50;;;;;;4960184;28;20036;-75
2022/11/04 11:49:27;;;;;;;34.22;18.27;;;19.20;97.20;;;;;;4926521;28;20058;-76
2022/11/04 11:51:55;;;;;;;29.85;17.75;;;19.10;99.90;;;;;;4960106;28;20674;-76
2022/11/04 11:54:32;;;;;;;32.85;19.50;;;19.00;99.90;;;;;;4960141;28;20047;-76
2022/11/04 11:57:04;;;;;;;30.42;17.77;;;19.00;99.90;;;;;;4959711;28;20512;-76
2022/11/04 11:59:42;;;;;;;30.80;18.45;;;18.80;99.90;;;;;;4961255;28;20399;-77
2022/11/04 12:02:27;;;;;;;40.58;23.17;;;18.60;99.90;;;;;;4941845;28;20051;-77
2022/11/04 12:04:56;;;;;;;50.83;27.10;;;18.50;99.90;;;;;;4941377;28;20051;-77
2022/11/04 12:07:30;;;;;;;53.38;30.95;;;18.30;99.90;;;;;;4942995;28;20053;-76
2022/11/04 12:10:06;;;;;;;51.70;28.00;;;18.20;99.90;;;;;;4959340;28;20185;-76
2022/11/04 12:12:55;;;;;;;43.47;27.00;;;17.90;99.90;;;;;;4943252;28;20047;-76
2022/11/04 12:15:38;;;;;;;42.15;25.20;;;17.90;99.90;;;;;;4942988;28;20082;-77
2022/11/04 12:18:31;;;;;;;51.70;28.00;;;17.80;99.90;;;;;;4960791;28;20043;-77
2022/11/04 12:21:07;;;;;;;46.83;29.50;;;17.70;99.90;;;;;;4959197;28;20648;-77
2022/11/04 12:23:43;;;;;;;55.00;33.92;;;17.30;99.90;;;;;;4933166;28;20082;-77
2022/11/04 12:26:14;;;;;;;;;;;17.20;99.90;;;;;;4959343;28;20047;-77
2022/11/04 12:28:57;;;;;;;54.53;36.13;;;17.20;99.90;;;;;;4958600;28;19966;-77
2022/11/04 12:31:38;;;;;;;48.78;29.85;;;17.00;99.90;;;;;;4959030;28;20043;-75
2022/11/04 12:34:15;;;;;;;45.95;29.70;;;16.90;99.90;;;;;;4959773;28;20081;-76
2022/11/04 12:36:58;;;;;;;58.28;33.58;;;16.80;99.90;;;;;;4959593;28;20447;-77
2022/11/04 12:39:44;;;;;;;56.75;33.20;;;16.80;99.90;;;;;;4960620;28;20054;-77
2022/11/04 12:42:21;;;;;;;45.47;28.40;;;16.80;99.90;;;;;;4960135;28;20054;-77
2022/11/04 12:44:53;;;;;;;;;;;16.90;99.90;;;;;;4959877;28;20047;-77
2022/11/04 12:47:35;;;;;;;44.60;27.83;;;16.80;99.90;;;;;;4959766;28;19954;-79
2022/11/04 12:50:34;;;;;;;38.17;22.65;;;16.70;99.90;;;;;;4962431;28;20043;-82
2022/11/04 12:53:22;;;;;;;42.58;24.08;;;16.50;99.90;;;;;;4966403;28;20062;-84
2022/11/04 12:55:57;;;;;;;42.03;26.90;;;16.60;99.90;;;;;;4946232;28;20078;-79
2022/11/04 12:58:44;;;;;;;43.30;27.40;;;16.70;99.90;;;;;;4959678;28;20049;-78
2022/11/04 13:01:18;;;;;;;37.70;23.60;;;16.70;99.90;;;;;;4958467;28;20058;-80
2022/11/04 13:03:53;;;;;;;35.42;21.08;;;16.80;99.90;;;;;;4958499;28;20059;-79
2022/11/04 13:06:27;;;;;;;42.38;25.35;;;16.80;99.90;;;;;;4960870;28;20047;-82
2022/11/04 13:08:59;;;;;;;44.58;25.73;;;17.00;99.90;;;;;;4963366;28;20133;-77
2022/11/04 13:11:31;;;;;;;36.00;23.83;;;17.00;99.90;;;;;;4962642;28;20047;-76
2022/11/04 13:14:04;;;;;;;36.15;22.75;;;17.20;99.90;;;;;;4960301;28;20038;-76
2022/11/04 13:16:36;;;;;;;36.25;23.20;;;17.20;99.90;;;;;;4960685;28;20052;-76
2022/11/04 13:19:08;;;;;;;48.88;31.00;;;17.20;99.90;;;;;;4961985;28;20127;-78
2022/11/04 13:21:38;;;;;;;49.05;32.13;;;17.20;99.90;;;;;;4960825;28;20049;-77
2022/11/04 13:24:14;;;;;;;56.95;35.45;;;17.30;99.90;;;;;;4961864;28;20503;-77